Time;durP1;ratioP1;P1;durP2;ratioP2;P2;SDS_P1;SDS_P2;PMS_P1;PMS_P2;Temp;Humidity;BMP_temperature;BMP_pressure;BME280_temperature;BME280_humidity;BME280_pressure;Samples;Min_cycle;Max_cycle;Signal;HPM_P1;HPM_P2
2022/10/12 00:01:33;;;;;;;22.27;11.67;;;;;;;;;;5047466;28;20040;-79
2022/10/12 00:03:59;;;;;;;25.43;12.07;;;;;;;;;;5039135;28;20091;-79
2022/10/12 00:06:25;;;;;;;22.63;11.20;;;;;;;;;;5037248;28;20033;-79
2022/10/12 00:08:52;;;;;;;21.73;11.00;;;;;;;;;;5037245;28;20029;-79
2022/10/12 00:11:20;;;;;;;24.33;10.53;;;;;;;;;;5042460;28;20026;-79
2022/10/12 00:13:47;;;;;;;23.27;10.50;;;;;;;;;;5044727;28;20033;-79
2022/10/12 00:16:13;;;;;;;21.40;11.47;;;;;;;;;;5038210;28;20029;-79
2022/10/12 00:18:39;;;;;;;24.17;11.57;;;;;;;;;;5039017;28;20747;-78
2022/10/12 00:21:13;;;;;;;19.13;10.13;;;;;;;;;;5053874;28;20029;-79
2022/10/12 00:23:40;;;;;;;20.10;12.10;;;;;;;;;;5043479;28;20026;-79
2022/10/12 00:26:07;;;;;;;25.90;11.17;;;;;;;;;;5037168;28;20095;-79
2022/10/12 00:28:34;;;;;;;23.10;11.20;;;;;;;;;;5057858;28;20583;-79
2022/10/12 00:31:00;;;;;;;24.83;11.97;;;;;;;;;;5052874;28;20138;-79
2022/10/12 00:33:29;;;;;;;21.93;11.07;;;;;;;;;;5055206;28;20040;-79
2022/10/12 00:35:56;;;;;;;22.20;11.57;;;;;;;;;;5034188;28;20044;-79
2022/10/12 00:38:22;;;;;;;24.00;11.97;;;;;;;;;;5038866;28;20049;-79
2022/10/12 00:40:50;;;;;;;24.07;11.93;;;;;;;;;;5035905;28;20041;-79
2022/10/12 00:43:33;;;;;;;23.07;12.47;;;;;;;;;;5038384;28;20029;-80
2022/10/12 00:46:01;;;;;;;;;;;;;;;;;;5042464;28;20040;-79
2022/10/12 00:48:29;;;;;;;17.93;9.93;;;;;;;;;;5036263;28;19916;-79
2022/10/12 00:50:55;;;;;;;22.10;10.93;;;;;;;;;;5036144;28;20052;-79
2022/10/12 00:53:25;;;;;;;22.87;10.83;;;;;;;;;;5036050;28;20025;-78
2022/10/12 00:55:53;;;;;;;23.13;11.40;;;;;;;;;;5036221;28;20468;-78
2022/10/12 00:58:19;;;;;;;25.37;11.20;;;;;;;;;;5035597;28;20064;-79
2022/10/12 01:00:47;;;;;;;21.60;11.07;;;;;;;;;;5036510;28;20025;-80
2022/10/12 01:03:14;;;;;;;19.43;10.77;;;;;;;;;;5036091;28;20473;-79
2022/10/12 01:05:40;;;;;;;20.57;10.83;;;;;;;;;;5035559;28;20354;-78
2022/10/12 01:08:07;;;;;;;25.13;11.00;;;;;;;;;;5035442;28;20109;-79
2022/10/12 01:10:33;;;;;;;26.40;11.03;;;;;;;;;;5035531;28;20056;-79
2022/10/12 01:13:02;;;;;;;19.87;10.73;;;;;;;;;;5035278;28;20099;-79
2022/10/12 01:15:31;;;;;;;20.37;10.10;;;;;;;;;;5035502;28;20497;-79
2022/10/12 01:18:08;;;;;;;19.23;10.53;;;;;;;;;;5035249;28;20103;-79
2022/10/12 01:20:40;;;;;;;22.80;10.00;;;;;;;;;;5034945;28;20025;-79
2022/10/12 01:23:09;;;;;;;21.67;11.27;;;;;;;;;;5035320;28;20026;-79
2022/10/12 01:25:49;;;;;;;22.17;11.30;;;;;;;;;;5035173;28;20414;-78
2022/10/12 01:28:26;;;;;;;22.23;10.83;;;;;;;;;;5035323;28;20060;-79
2022/10/12 01:31:00;;;;;;;23.73;11.63;;;;;;;;;;5034893;28;20045;-79
2022/10/12 01:33:36;;;;;;;22.83;11.07;;;;;;;;;;5034846;28;20037;-79
2022/10/12 01:36:16;;;;;;;18.57;9.93;;;;;;;;;;5032470;28;20049;-77
2022/10/12 01:38:48;;;;;;;17.80;10.40;;;;;;;;;;5028755;28;20029;-78
2022/10/12 01:41:24;;;;;;;20.53;10.37;;;;;;;;;;5030016;28;20021;-79
2022/10/12 01:43:52;;;;;;;21.33;9.73;;;;;;;;;;5031904;28;20029;-78
2022/10/12 01:46:18;;;;;;;18.40;9.60;;;;;;;;;;5034761;28;20026;-79
2022/10/12 01:48:46;;;;;;;22.73;10.90;;;;;;;;;;5030602;28;20090;-76
2022/10/12 01:51:15;;;;;;;21.63;9.57;;;;;;;;;;5031067;28;20358;-78
2022/10/12 01:53:45;;;;;;;21.50;10.00;;;;;;;;;;5030281;28;20449;-77
2022/10/12 01:56:18;;;;;;;22.60;9.87;;;;;;;;;;5039446;28;20029;-78
2022/10/12 01:58:53;;;;;;;21.33;9.35;;;;;;;;;;5025029;28;20033;-76
2022/10/12 02:01:26;;;;;;;19.47;9.87;;;;;;;;;;5024944;28;20034;-78
2022/10/12 02:03:52;;;;;;;21.33;9.57;;;;;;;;;;5044928;28;20433;-79
2022/10/12 02:06:20;;;;;;;17.03;9.53;;;;;;;;;;5029980;28;20054;-78
2022/10/12 02:08:58;;;;;;;24.73;10.80;;;;;;;;;;5030993;28;20030;-78
2022/10/12 02:11:25;;;;;;;20.33;9.50;;;;;;;;;;5024473;28;20033;-79
2022/10/12 02:13:57;;;;;;;19.80;9.40;;;;;;;;;;5027718;28;20044;-78
2022/10/12 02:16:32;;;;;;;16.98;9.38;;;;;;;;;;5041780;28;20354;-78
2022/10/12 02:18:59;;;;;;;17.30;9.70;;;;;;;;;;5024803;28;20034;-79
2022/10/12 02:21:29;;;;;;;22.13;11.13;;;;;;;;;;5045484;28;20437;-78
2022/10/12 02:23:55;;;;;;;18.60;10.33;;;;;;;;;;5030797;28;20052;-79
2022/10/12 02:26:22;;;;;;;18.67;9.77;;;;;;;;;;5043311;28;20037;-79
2022/10/12 02:28:49;;;;;;;18.47;10.60;;;;;;;;;;5026457;28;20040;-78
2022/10/12 02:31:26;;;;;;;20.90;10.50;;;;;;;;;;5032475;28;20484;-78
2022/10/12 02:34:09;;;;;;;13.87;8.30;;;;;;;;;;5022384;28;20188;-77
2022/10/12 02:36:55;;;;;;;17.47;9.23;;;;;;;;;;5024437;28;20511;-78
2022/10/12 02:39:34;;;;;;;16.60;10.00;;;;;;;;;;5025842;28;20040;-78
2022/10/12 02:42:04;;;;;;;19.73;9.03;;;;;;;;;;5029896;28;20029;-78
2022/10/12 02:44:31;;;;;;;22.43;10.00;;;;;;;;;;5026368;28;20041;-79
2022/10/12 02:47:00;;;;;;;21.10;9.53;;;;;;;;;;5027025;28;20056;-78
2022/10/12 02:49:27;;;;;;;15.17;8.40;;;;;;;;;;5034738;28;20036;-77
2022/10/12 02:51:55;;;;;;;16.33;8.60;;;;;;;;;;5034616;28;20053;-78
2022/10/12 02:54:21;;;;;;;14.97;8.73;;;;;;;;;;5029165;28;20090;-79
2022/10/12 02:56:47;;;;;;;16.67;8.17;;;;;;;;;;5032298;28;20037;-78
2022/10/12 02:59:24;;;;;;;17.07;8.47;;;;;;;;;;5030588;28;20033;-78
2022/10/12 03:01:50;;;;;;;16.77;8.67;;;;;;;;;;5030157;28;20030;-78
2022/10/12 03:04:16;;;;;;;18.63;9.27;;;;;;;;;;5026592;28;20045;-78
2022/10/12 03:06:44;;;;;;;18.93;8.00;;;;;;;;;;5033455;28;20068;-78
2022/10/12 03:09:10;;;;;;;18.97;8.43;;;;;;;;;;5029200;28;20025;-78
2022/10/12 03:11:42;;;;;;;16.23;8.67;;;;;;;;;;5033375;28;20040;-78
2022/10/12 03:14:09;;;;;;;21.67;8.60;;;;;;;;;;5028241;28;20083;-77
2022/10/12 03:16:35;;;;;;;18.63;8.17;;;;;;;;;;5029360;28;20036;-79
2022/10/12 03:19:01;;;;;;;16.43;8.40;;;;;;;;;;5049542;28;20032;-78
2022/10/12 03:21:27;;;;;;;18.77;9.73;;;;;;;;;;5036247;28;20030;-78
2022/10/12 03:23:53;;;;;;;18.70;8.07;;;;;;;;;;5034703;28;20025;-78
2022/10/12 03:26:19;;;;;;;17.60;7.53;;;;;;;;;;5035814;28;20025;-78
2022/10/12 03:28:48;;;;;;;18.00;7.90;;;;;;;;;;5027983;28;20384;-79
2022/10/12 03:31:14;;;;;;;14.67;7.30;;;;;;;;;;5028674;28;20030;-78
2022/10/12 03:33:40;;;;;;;15.00;7.83;;;;;;;;;;5034076;28;20070;-78
2022/10/12 03:36:06;;;;;;;19.60;9.10;;;;;;;;;;5031761;28;20034;-78
2022/10/12 03:38:32;;;;;;;16.73;7.93;;;;;;;;;;5030014;28;20026;-79
2022/10/12 03:40:58;;;;;;;14.63;7.80;;;;;;;;;;5036956;28;20032;-78
2022/10/12 03:43:24;;;;;;;21.30;8.63;;;;;;;;;;5023684;28;20044;-78
2022/10/12 03:45:51;;;;;;;17.83;7.87;;;;;;;;;;5037237;28;20025;-79
2022/10/12 03:48:17;;;;;;;17.13;7.47;;;;;;;;;;5037599;28;20116;-79
2022/10/12 03:50:47;;;;;;;13.73;7.40;;;;;;;;;;5036708;28;20017;-79
2022/10/12 03:53:13;;;;;;;13.67;6.63;;;;;;;;;;5037936;28;20068;-79
2022/10/12 03:55:39;;;;;;;19.37;7.37;;;;;;;;;;5036739;28;20026;-79
2022/10/12 03:58:09;;;;;;;14.40;6.60;;;;;;;;;;5036828;28;20034;-79
2022/10/12 04:00:35;;;;;;;16.00;7.53;;;;;;;;;;5023830;28;20032;-79
2022/10/12 04:03:01;;;;;;;18.83;7.97;;;;;;;;;;5036971;28;20026;-79
2022/10/12 04:05:28;;;;;;;17.93;8.03;;;;;;;;;;5037357;28;20036;-79
2022/10/12 04:07:54;;;;;;;19.70;8.47;;;;;;;;;;5039110;28;20330;-77
2022/10/12 04:10:22;;;;;;;14.27;7.67;;;;;;;;;;5037768;28;20401;-79
2022/10/12 04:12:48;;;;;;;18.60;8.50;;;;;;;;;;5042709;28;20037;-79
2022/10/12 04:15:16;;;;;;;15.57;8.50;;;;;;;;;;5042684;28;20080;-79
2022/10/12 04:17:43;;;;;;;14.27;7.57;;;;;;;;;;5054684;28;20553;-80
2022/10/12 04:20:11;;;;;;;12.37;7.77;;;;;;;;;;5046410;28;20264;-78
2022/10/12 04:22:37;;;;;;;15.40;7.50;;;;;;;;;;5039386;28;20033;-78
2022/10/12 04:25:04;;;;;;;14.87;7.23;;;;;;;;;;5037241;28;20375;-79
2022/10/12 04:27:30;;;;;;;14.23;7.33;;;;;;;;;;5037230;28;20265;-78
2022/10/12 04:29:56;;;;;;;17.67;7.57;;;;;;;;;;5041841;28;20041;-78
2022/10/12 04:32:23;;;;;;;13.80;7.57;;;;;;;;;;5042226;28;20434;-78
2022/10/12 04:34:49;;;;;;;17.47;7.80;;;;;;;;;;5037672;28;20025;-79
2022/10/12 04:37:17;;;;;;;18.57;8.17;;;;;;;;;;5023835;28;20117;-79
2022/10/12 04:39:45;;;;;;;15.33;7.10;;;;;;;;;;5052495;28;20678;-79
2022/10/12 04:42:13;;;;;;;15.70;7.27;;;;;;;;;;5045033;28;20288;-79
2022/10/12 04:44:39;;;;;;;20.80;8.37;;;;;;;;;;5039865;28;20033;-79
2022/10/12 04:47:05;;;;;;;16.77;7.40;;;;;;;;;;5036456;28;20405;-79
2022/10/12 04:49:31;;;;;;;15.00;6.90;;;;;;;;;;5036112;28;20025;-79
2022/10/12 04:51:57;;;;;;;13.17;7.07;;;;;;;;;;5035429;28;20156;-79
2022/10/12 04:54:23;;;;;;;19.57;9.03;;;;;;;;;;5036693;28;20072;-78
2022/10/12 04:56:49;;;;;;;17.70;7.30;;;;;;;;;;5035927;28;20047;-78
2022/10/12 04:59:15;;;;;;;15.07;7.90;;;;;;;;;;5035269;28;20512;-79
2022/10/12 05:01:41;;;;;;;17.83;8.27;;;;;;;;;;5036188;28;20030;-79
2022/10/12 05:04:07;;;;;;;14.57;7.47;;;;;;;;;;5036003;28;20029;-79
2022/10/12 05:06:33;;;;;;;17.53;8.10;;;;;;;;;;5026226;28;20030;-78
2022/10/12 05:08:59;;;;;;;12.83;7.17;;;;;;;;;;5037246;28;20434;-78
2022/10/12 05:11:25;;;;;;;14.53;7.17;;;;;;;;;;5036585;28;20716;-79
2022/10/12 05:13:51;;;;;;;19.90;7.17;;;;;;;;;;5036809;28;20056;-79
2022/10/12 05:16:17;;;;;;;15.17;6.80;;;;;;;;;;5040179;28;20095;-79
2022/10/12 05:18:43;;;;;;;15.57;7.33;;;;;;;;;;5036876;28;20045;-79
2022/10/12 05:21:09;;;;;;;16.20;7.67;;;;;;;;;;5035856;28;20029;-79
2022/10/12 05:23:35;;;;;;;15.90;7.03;;;;;;;;;;5036892;28;20030;-79
2022/10/12 05:26:01;;;;;;;15.00;8.07;;;;;;;;;;5031892;28;20021;-78
2022/10/12 05:28:27;;;;;;;15.33;7.73;;;;;;;;;;5038337;28;20075;-79
2022/10/12 05:30:53;;;;;;;14.60;7.17;;;;;;;;;;5036566;28;20063;-79
2022/10/12 05:33:20;;;;;;;13.13;7.50;;;;;;;;;;5035992;28;20118;-78
2022/10/12 05:35:47;;;;;;;17.03;8.57;;;;;;;;;;5036699;28;20056;-79
2022/10/12 05:38:13;;;;;;;15.87;7.53;;;;;;;;;;5036970;28;20095;-79
2022/10/12 05:40:43;;;;;;;14.87;6.93;;;;;;;;;;5037908;28;20083;-79
2022/10/12 05:43:09;;;;;;;27.47;8.43;;;;;;;;;;5036456;28;20361;-78
2022/10/12 05:45:35;;;;;;;19.00;9.87;;;;;;;;;;5035918;28;20271;-78
2022/10/12 05:48:01;;;;;;;22.60;11.60;;;;;;;;;;5039447;28;20049;-79
2022/10/12 05:50:27;;;;;;;22.37;9.07;;;;;;;;;;5033060;28;20025;-79
2022/10/12 05:52:55;;;;;;;15.90;7.97;;;;;;;;;;5045731;28;20058;-79
2022/10/12 05:55:21;;;;;;;20.53;8.90;;;;;;;;;;5037025;28;20279;-79
2022/10/12 05:57:49;;;;;;;15.97;8.67;;;;;;;;;;5041749;28;20260;-79
2022/10/12 06:00:16;;;;;;;19.13;7.93;;;;;;;;;;5041379;28;20345;-79
2022/10/12 06:02:42;;;;;;;16.20;7.93;;;;;;;;;;5034581;28;20116;-79
2022/10/12 06:05:08;;;;;;;22.37;9.27;;;;;;;;;;5033591;28;20025;-79
2022/10/12 06:07:34;;;;;;;16.63;7.70;;;;;;;;;;5035428;28;20398;-79
2022/10/12 06:10:00;;;;;;;18.33;8.43;;;;;;;;;;5045001;28;20029;-79
2022/10/12 06:12:27;;;;;;;16.40;8.43;;;;;;;;;;5035250;28;20091;-79
2022/10/12 06:14:53;;;;;;;18.97;7.47;;;;;;;;;;5034565;28;20030;-79
2022/10/12 06:17:19;;;;;;;15.50;7.60;;;;;;;;;;5040504;28;20325;-78
2022/10/12 06:19:45;;;;;;;13.40;7.53;;;;;;;;;;5035112;28;20124;-79
2022/10/12 06:22:12;;;;;;;15.17;7.33;;;;;;;;;;5034565;28;20033;-79
2022/10/12 06:24:38;;;;;;;20.47;7.20;;;;;;;;;;5037308;28;20041;-80
2022/10/12 06:27:04;;;;;;;24.37;9.93;;;;;;;;;;5056387;28;20112;-79
2022/10/12 06:29:30;;;;;;;16.67;6.97;;;;;;;;;;5040108;28;20362;-79
2022/10/12 06:31:56;;;;;;;18.90;8.80;;;;;;;;;;5047622;28;20084;-78
2022/10/12 06:34:22;;;;;;;18.23;8.90;;;;;;;;;;5038827;28;20030;-79
2022/10/12 06:36:48;;;;;;;24.07;9.00;;;;;;;;;;5039598;28;20477;-79
2022/10/12 06:39:15;;;;;;;20.23;8.70;;;;;;;;;;5027911;28;20029;-78
2022/10/12 06:41:41;;;;;;;25.27;9.03;;;;;;;;;;5031570;28;20026;-79
2022/10/12 06:44:07;;;;;;;16.17;8.27;;;;;;;;;;5038430;28;20098;-79
2022/10/12 06:46:33;;;;;;;22.23;8.83;;;;;;;;;;5039853;28;20017;-80
2022/10/12 06:48:59;;;;;;;22.13;9.57;;;;;;;;;;5044194;28;20033;-79
2022/10/12 06:51:25;;;;;;;26.60;10.10;;;;;;;;;;5037727;28;20091;-79
2022/10/12 06:53:54;;;;;;;16.60;8.43;;;;;;;;;;5039515;28;20030;-79
2022/10/12 06:56:20;;;;;;;23.70;10.13;;;;;;;;;;5039172;28;20025;-79
2022/10/12 06:58:46;;;;;;;26.47;9.67;;;;;;;;;;5039681;28;20033;-79
2022/10/12 07:01:12;;;;;;;19.20;9.90;;;;;;;;;;5039352;28;20503;-78
2022/10/12 07:03:38;;;;;;;27.63;8.73;;;;;;;;;;5037808;28;20036;-78
2022/10/12 07:06:11;;;;;;;28.87;9.83;;;;;;;;;;5038072;28;20028;-78
2022/10/12 07:08:37;;;;;;;21.80;9.73;;;;;;;;;;5038117;28;20036;-79
2022/10/12 07:11:05;;;;;;;27.63;9.57;;;;;;;;;;5038152;28;20025;-79
2022/10/12 07:13:32;;;;;;;19.10;7.97;;;;;;;;;;5038203;28;20180;-79
2022/10/12 07:15:58;;;;;;;26.20;8.93;;;;;;;;;;5039596;28;20119;-80
2022/10/12 07:18:25;;;;;;;24.63;8.73;;;;;;;;;;5040454;28;20040;-80
2022/10/12 07:20:51;;;;;;;20.03;8.90;;;;;;;;;;5037776;28;20120;-79
2022/10/12 07:23:17;;;;;;;19.60;8.63;;;;;;;;;;5037914;28;20029;-79
2022/10/12 07:25:48;;;;;;;19.00;7.43;;;;;;;;;;5038142;28;20033;-79
2022/10/12 07:28:14;;;;;;;18.03;6.73;;;;;;;;;;5029741;28;20050;-79
2022/10/12 07:30:40;;;;;;;21.67;7.07;;;;;;;;;;5049061;28;20041;-79
2022/10/12 07:33:06;;;;;;;25.47;7.80;;;;;;;;;;5037674;28;20041;-79
2022/10/12 07:35:32;;;;;;;11.63;5.40;;;;;;;;;;5036181;28;20030;-79
2022/10/12 07:37:58;;;;;;;10.27;5.00;;;;;;;;;;5030698;28;20041;-79
2022/10/12 07:40:25;;;;;;;13.93;5.37;;;;;;;;;;5033198;28;20060;-79
2022/10/12 07:42:51;;;;;;;14.03;5.90;;;;;;;;;;5032696;28;20032;-79
2022/10/12 07:45:17;;;;;;;11.57;5.03;;;;;;;;;;5028283;28;20084;-79
2022/10/12 07:47:43;;;;;;;14.63;5.93;;;;;;;;;;5034127;28;20462;-79
2022/10/12 07:50:09;;;;;;;11.50;5.13;;;;;;;;;;5031882;28;20021;-79
2022/10/12 07:52:36;;;;;;;13.07;5.47;;;;;;;;;;5034776;28;20041;-79
2022/10/12 07:55:02;;;;;;;12.43;5.43;;;;;;;;;;5035488;28;20438;-79
2022/10/12 07:57:28;;;;;;;12.63;5.13;;;;;;;;;;5032974;28;20026;-79
2022/10/12 07:59:54;;;;;;;12.23;5.70;;;;;;;;;;5034992;28;20037;-79
2022/10/12 08:02:20;;;;;;;15.37;6.47;;;;;;;;;;5031728;28;20116;-79
2022/10/12 08:04:46;;;;;;;14.63;6.00;;;;;;;;;;5031654;28;20445;-79
2022/10/12 08:07:12;;;;;;;13.97;5.83;;;;;;;;;;5032149;28;20357;-79
2022/10/12 08:09:38;;;;;;;14.17;5.83;;;;;;;;;;5034283;28;20442;-79
2022/10/12 08:12:04;;;;;;;15.30;5.27;;;;;;;;;;5033480;28;20105;-79
2022/10/12 08:14:31;;;;;;;8.63;4.73;;;;;;;;;;5034145;28;20033;-79
2022/10/12 08:16:57;;;;;;;9.63;5.20;;;;;;;;;;5026001;28;20036;-79
2022/10/12 08:19:23;;;;;;;12.50;5.33;;;;;;;;;;5032631;28;20117;-79
2022/10/12 08:21:49;;;;;;;13.57;5.47;;;;;;;;;;5033226;28;20038;-79
2022/10/12 08:24:15;;;;;;;10.10;4.23;;;;;;;;;;5032102;28;20334;-79
2022/10/12 08:26:41;;;;;;;13.53;4.30;;;;;;;;;;5031664;28;20358;-79
2022/10/12 08:29:08;;;;;;;13.07;4.20;;;;;;;;;;5026921;28;20018;-79
2022/10/12 08:31:35;;;;;;;17.37;5.43;;;;;;;;;;5034681;28;20036;-79
2022/10/12 08:34:01;;;;;;;13.87;4.87;;;;;;;;;;5047826;28;20029;-79
2022/10/12 08:36:27;;;;;;;9.83;4.33;;;;;;;;;;5049694;28;20041;-79
2022/10/12 08:38:54;;;;;;;9.17;4.77;;;;;;;;;;5044858;28;20112;-79
2022/10/12 08:41:39;;;;;;;11.57;4.83;;;;;;;;;;5049085;28;20102;-79
2022/10/12 08:44:08;;;;;;;12.70;4.70;;;;;;;;;;5030707;28;20438;-79
2022/10/12 08:46:34;;;;;;;9.10;4.47;;;;;;;;;;5045184;28;20030;-79
2022/10/12 08:49:03;;;;;;;8.83;4.00;;;;;;;;;;5032364;28;20055;-79
2022/10/12 08:51:31;;;;;;;10.47;5.23;;;;;;;;;;5046612;28;20084;-78
2022/10/12 08:54:06;;;;;;;15.20;5.23;;;;;;;;;;5041121;28;20025;-79
2022/10/12 08:56:34;;;;;;;9.10;4.33;;;;;;;;;;5033833;28;20033;-79
2022/10/12 08:59:00;;;;;;;10.47;4.50;;;;;;;;;;5032146;28;20041;-79
2022/10/12 09:01:35;;;;;;;12.23;4.70;;;;;;;;;;5032441;28;20469;-79
2022/10/12 09:04:20;;;;;;;9.93;4.30;;;;;;;;;;5030847;28;20592;-78
2022/10/12 09:06:54;;;;;;;15.80;4.60;;;;;;;;;;5042326;28;20120;-79
2022/10/12 09:09:20;;;;;;;7.40;4.40;;;;;;;;;;5023470;28;20050;-79
2022/10/12 09:12:07;;;;;;;7.30;4.30;;;;;;;;;;5032666;28;20065;-79
2022/10/12 09:14:35;;;;;;;9.20;4.10;;;;;;;;;;5028841;28;20025;-79
2022/10/12 09:17:02;;;;;;;12.37;5.50;;;;;;;;;;5030671;28;20030;-79
2022/10/12 09:19:40;;;;;;;8.97;4.10;;;;;;;;;;5025420;28;20040;-79
2022/10/12 09:22:12;;;;;;;7.93;3.10;;;;;;;;;;5029937;28;20032;-79
2022/10/12 09:24:39;;;;;;;11.38;3.95;;;;;;;;;;5033011;28;20041;-79
2022/10/12 09:27:15;;;;;;;9.77;3.77;;;;;;;;;;5023502;28;20035;-79
2022/10/12 09:29:45;;;;;;;8.40;3.67;;;;;;;;;;5031143;28;20029;-79
2022/10/12 09:32:20;;;;;;;14.17;3.50;;;;;;;;;;5032016;28;20026;-80
2022/10/12 09:34:47;;;;;;;13.60;3.23;;;;;;;;;;5032946;28;20078;-79
2022/10/12 09:37:24;;;;;;;10.87;4.13;;;;;;;;;;5036372;28;20056;-79
2022/10/12 09:39:50;;;;;;;8.57;3.67;;;;;;;;;;5035506;28;20037;-80
2022/10/12 09:42:16;;;;;;;10.73;4.20;;;;;;;;;;5028272;28;20442;-81
2022/10/12 09:44:46;;;;;;;10.30;3.77;;;;;;;;;;5035026;28;20100;-79
2022/10/12 09:47:28;;;;;;;6.93;4.00;;;;;;;;;;5035947;28;20021;-79
2022/10/12 09:49:57;;;;;;;5.53;3.60;;;;;;;;;;5036191;28;20021;-79
2022/10/12 09:52:26;;;;;;;10.33;3.90;;;;;;;;;;5036711;28;20021;-80
2022/10/12 09:54:54;;;;;;;6.23;3.43;;;;;;;;;;5035876;28;20407;-80
2022/10/12 09:57:25;;;;;;;11.77;4.37;;;;;;;;;;5040853;28;20040;-79
2022/10/12 09:59:51;;;;;;;8.63;3.57;;;;;;;;;;5034381;28;20029;-79
2022/10/12 10:02:18;;;;;;;10.00;4.53;;;;;;;;;;5036369;28;20033;-80
2022/10/12 10:04:46;;;;;;;8.63;3.97;;;;;;;;;;5035094;28;20025;-81
2022/10/12 10:07:24;;;;;;;11.57;4.47;;;;;;;;;;5035776;28;20116;-80
2022/10/12 10:10:13;;;;;;;13.00;4.33;;;;;;;;;;5037193;28;20057;-79
2022/10/12 10:12:51;;;;;;;8.67;5.03;;;;;;;;;;5025863;28;20030;-80
2022/10/12 10:15:28;;;;;;;10.87;4.73;;;;;;;;;;5035758;28;20502;-79
2022/10/12 10:17:56;;;;;;;6.57;3.93;;;;;;;;;;5039438;28;20121;-79
2022/10/12 10:20:33;;;;;;;10.27;4.40;;;;;;;;;;5036047;28;20117;-79
2022/10/12 10:22:59;;;;;;;9.53;4.97;;;;;;;;;;5040113;28;20029;-79
2022/10/12 10:25:26;;;;;;;11.43;4.33;;;;;;;;;;5035078;28;20258;-79
2022/10/12 10:28:12;;;;;;;9.57;3.73;;;;;;;;;;5035730;28;20029;-80
2022/10/12 10:30:39;;;;;;;11.20;4.57;;;;;;;;;;5034311;28;20033;-79
2022/10/12 10:33:18;;;;;;;8.90;4.13;;;;;;;;;;5034982;28;20032;-79
2022/10/12 10:35:56;;;;;;;12.77;4.60;;;;;;;;;;5035250;28;20120;-79
2022/10/12 10:38:23;;;;;;;8.10;3.90;;;;;;;;;;5035058;28;20431;-79
2022/10/12 10:40:52;;;;;;;8.17;4.77;;;;;;;;;;5036124;28;20484;-79
2022/10/12 10:43:26;;;;;;;9.30;4.70;;;;;;;;;;5035293;28;20026;-79
2022/10/12 10:45:54;;;;;;;7.53;4.23;;;;;;;;;;5035751;28;20104;-79
2022/10/12 10:48:22;;;;;;;15.90;4.93;;;;;;;;;;5037753;28;20029;-80
2022/10/12 10:50:55;;;;;;;10.03;4.80;;;;;;;;;;5044138;28;20026;-80
2022/10/12 10:53:22;;;;;;;11.70;5.53;;;;;;;;;;5035579;28;20040;-79
2022/10/12 10:56:04;;;;;;;14.60;5.00;;;;;;;;;;5039310;28;20030;-79
2022/10/12 10:58:36;;;;;;;13.20;5.10;;;;;;;;;;5038779;28;20076;-79
2022/10/12 11:01:07;;;;;;;10.40;5.00;;;;;;;;;;5035469;28;20342;-79
2022/10/12 11:03:37;;;;;;;10.35;4.68;;;;;;;;;;5035249;28;20026;-79
2022/10/12 11:06:14;;;;;;;9.10;4.32;;;;;;;;;;5039545;28;20017;-80
2022/10/12 11:08:41;;;;;;;11.60;4.85;;;;;;;;;;5039376;28;20048;-79
2022/10/12 11:11:10;;;;;;;8.93;4.93;;;;;;;;;;5038755;28;20025;-78
2022/10/12 11:13:43;;;;;;;10.93;5.18;;;;;;;;;;5038510;28;20048;-78
2022/10/12 11:16:27;;;;;;;11.20;4.32;;;;;;;;;;5038777;28;20025;-79
2022/10/12 11:18:55;;;;;;;9.27;4.28;;;;;;;;;;5049717;28;20029;-79
2022/10/12 11:21:35;;;;;;;9.95;4.32;;;;;;;;;;5041878;28;20026;-79
2022/10/12 11:24:20;;;;;;;11.43;4.50;;;;;;;;;;5039386;28;20084;-79
2022/10/12 11:26:49;;;;;;;7.85;4.25;;;;;;;;;;5039749;28;20036;-79
2022/10/12 11:29:16;;;;;;;7.33;3.53;;;;;;;;;;5041607;28;20032;-80
2022/10/12 11:31:47;;;;;;;7.20;3.45;;;;;;;;;;5042129;28;20042;-79
2022/10/12 11:34:15;;;;;;;6.15;3.38;;;;;;;;;;5042481;28;20124;-79
2022/10/12 11:36:45;;;;;;;10.57;3.38;;;;;;;;;;5044108;28;20049;-80
2022/10/12 11:39:19;;;;;;;8.35;3.55;;;;;;;;;;5050427;28;20076;-80
2022/10/12 11:41:49;;;;;;;9.05;3.72;;;;;;;;;;5030578;28;20033;-80
2022/10/12 11:44:18;;;;;;;10.60;4.30;;;;;;;;;;5041279;28;20029;-80
2022/10/12 11:46:57;;;;;;;5.32;3.35;;;;;;;;;;5040114;28;20021;-79
2022/10/12 11:49:25;;;;;;;6.60;3.45;;;;;;;;;;5041690;28;20029;-78
2022/10/12 11:51:52;;;;;;;13.70;3.90;;;;;;;;;;5040583;28;20151;-79
2022/10/12 11:54:45;;;;;;;9.63;3.45;;;;;;;;;;5038169;28;20120;-79
2022/10/12 11:57:17;;;;;;;8.27;3.67;;;;;;;;;;5032348;28;20048;-79
2022/10/12 11:59:45;;;;;;;8.35;3.33;;;;;;;;;;5039672;28;20030;-79
2022/10/12 12:02:18;;;;;;;9.63;3.78;;;;;;;;;;5026894;28;20040;-79
2022/10/12 12:04:45;;;;;;;9.35;3.97;;;;;;;;;;5038743;28;20498;-79
2022/10/12 12:07:30;;;;;;;11.50;4.80;;;;;;;;;;5039665;28;20028;-79
2022/10/12 12:09:56;;;;;;;8.73;2.95;;;;;;;;;;5042290;28;20112;-79
2022/10/12 12:12:24;;;;;;;8.88;3.35;;;;;;;;;;5037580;28;20037;-80
2022/10/12 12:14:50;;;;;;;8.70;3.50;;;;;;;;;;5038191;28;20025;-80
2022/10/12 12:17:16;;;;;;;5.88;3.15;;;;;;;;;;5037603;28;20026;-79
2022/10/12 12:19:43;;;;;;;8.57;3.35;;;;;;;;;;5038192;28;20042;-80
2022/10/12 12:22:14;;;;;;;9.32;3.80;;;;;;;;;;5037020;28;20464;-79
2022/10/12 12:24:50;;;;;;;8.17;3.47;;;;;;;;;;5037550;28;20026;-79
2022/10/12 12:27:30;;;;;;;7.85;3.78;;;;;;;;;;5037052;28;20322;-79
2022/10/12 12:29:57;;;;;;;7.57;4.20;;;;;;;;;;5036758;28;20049;-79
2022/10/12 12:32:25;;;;;;;9.52;3.72;;;;;;;;;;5022941;28;20037;-79
2022/10/12 12:34:56;;;;;;;14.35;4.07;;;;;;;;;;5037922;28;20029;-78
2022/10/12 12:37:24;;;;;;;11.57;3.90;;;;;;;;;;5036763;28;20028;-79
2022/10/12 12:39:54;;;;;;;10.63;3.47;;;;;;;;;;5048254;28;20026;-79
2022/10/12 12:42:24;;;;;;;8.20;3.60;;;;;;;;;;5037713;28;20021;-80
2022/10/12 12:44:50;;;;;;;9.98;3.60;;;;;;;;;;5036031;28;20025;-80
2022/10/12 12:47:19;;;;;;;7.25;3.30;;;;;;;;;;5036497;28;20032;-79
2022/10/12 12:49:52;;;;;;;6.68;2.92;;;;;;;;;;5037604;28;20095;-79
2022/10/12 12:52:21;;;;;;;7.75;3.40;;;;;;;;;;5029969;28;20026;-80
2022/10/12 12:54:56;;;;;;;10.10;3.67;;;;;;;;;;5046602;28;20075;-80
2022/10/12 12:57:34;;;;;;;9.77;3.45;;;;;;;;;;5040400;28;20021;-80
2022/10/12 13:00:09;;;;;;;9.90;3.97;;;;;;;;;;5038319;28;20122;-79
2022/10/12 13:02:48;;;;;;;8.48;3.47;;;;;;;;;;5041737;28;20029;-80
2022/10/12 13:05:29;;;;;;;8.75;2.92;;;;;;;;;;5050050;28;20076;-80
2022/10/12 13:08:08;;;;;;;7.70;3.42;;;;;;;;;;5038275;28;20067;-80
2022/10/12 13:10:53;;;;;;;8.40;3.30;;;;;;;;;;5050122;28;20036;-79
2022/10/12 13:13:39;;;;;;;6.55;3.45;;;;;;;;;;5045552;28;20040;-78
2022/10/12 13:16:05;;;;;;;9.18;3.92;;;;;;;;;;5040583;28;20032;-80
2022/10/12 13:18:49;;;;;;;11.52;4.18;;;;;;;;;;5038138;28;20025;-80
2022/10/12 13:21:29;;;;;;;13.95;4.75;;;;;;;;;;5026394;28;20029;-79
2022/10/12 13:24:15;;;;;;;10.25;3.63;;;;;;;;;;5024349;28;20056;-80
2022/10/12 13:26:43;;;;;;;9.13;4.13;;;;;;;;;;4988384;28;20034;-80
2022/10/12 13:29:16;;;;;;;13.65;5.78;;;;;;;;;;5039608;28;20097;-80
2022/10/12 13:31:44;;;;;;;13.80;5.75;;;;;;;;;;5040570;28;20017;-80
2022/10/12 13:34:14;;;;;;;7.38;3.97;;;;;;;;;;5035050;28;20406;-79
2022/10/12 13:36:48;;;;;;;12.60;4.72;;;;;;;;;;5030883;28;20053;-79
2022/10/12 13:39:15;;;;;;;8.85;4.30;;;;;;;;;;5043409;28;20033;-78
2022/10/12 13:41:42;;;;;;;10.45;4.28;;;;;;;;;;5026484;28;20052;-79
2022/10/12 13:44:18;;;;;;;12.48;4.68;;;;;;;;;;5029894;28;20040;-78
2022/10/12 13:46:53;;;;;;;9.23;4.50;;;;;;;;;;5029632;28;20155;-77
2022/10/12 13:49:21;;;;;;;10.57;4.22;;;;;;;;;;5024655;28;20030;-80
2022/10/12 13:51:50;;;;;;;9.98;4.70;;;;;;;;;;5022536;28;20014;-80
2022/10/12 13:54:17;;;;;;;7.45;3.85;;;;;;;;;;5029527;28;20080;-79
2022/10/12 13:56:48;;;;;;;7.75;4.03;;;;;;;;;;5043999;28;20033;-79
2022/10/12 13:59:17;;;;;;;7.82;3.83;;;;;;;;;;5025803;28;20037;-79
2022/10/12 14:01:50;;;;;;;11.15;4.93;;;;;;;;;;5029369;28;20034;-81
2022/10/12 14:04:16;;;;;;;9.40;4.85;;;;;;;;;;5030126;28;20041;-80
2022/10/12 14:06:46;;;;;;;8.05;3.97;;;;;;;;;;5052271;28;20516;-79
2022/10/12 14:09:14;;;;;;;7.88;3.20;;;;;;;;;;5035997;28;20026;-78
2022/10/12 14:11:41;;;;;;;9.45;4.55;;;;;;;;;;5043015;28;20029;-80
2022/10/12 14:14:30;;;;;;;6.88;3.10;;;;;;;;;;5045367;28;20030;-79
2022/10/12 14:16:58;;;;;;;10.27;4.28;;;;;;;;;;5042963;28;20036;-78
2022/10/12 14:19:32;;;;;;;6.80;3.60;;;;;;;;;;5035563;28;20427;-79
2022/10/12 14:21:58;;;;;;;10.52;5.05;;;;;;;;;;5033550;28;20036;-79
2022/10/12 14:24:25;;;;;;;8.27;3.60;;;;;;;;;;5035098;28;20091;-78
2022/10/12 14:27:02;;;;;;;5.70;3.45;;;;;;;;;;5033349;28;20117;-78
2022/10/12 14:29:34;;;;;;;9.93;3.80;;;;;;;;;;5037253;28;20030;-79
2022/10/12 14:32:02;;;;;;;9.18;2.97;;;;;;;;;;5038094;28;20030;-79
2022/10/12 14:34:30;;;;;;;6.82;2.95;;;;;;;;;;5051409;28;20041;-78
2022/10/12 14:37:23;;;;;;;9.57;2.92;;;;;;;;;;5036270;28;20029;-79
2022/10/12 14:39:51;;;;;;;11.55;3.42;;;;;;;;;;5031453;28;20097;-79
2022/10/12 14:42:20;;;;;;;5.57;3.05;;;;;;;;;;5037655;28;20052;-79
2022/10/12 14:44:46;;;;;;;14.57;3.28;;;;;;;;;;5049814;28;20049;-79